sensor_id;sensor_type;location;lat;lon;timestamp;temperature;humidity
21459;DHT22;10891;49.350;19.386;2023-04-15T00:02:17;4.20;99.90
21459;DHT22;10891;49.350;19.386;2023-04-15T00:04:44;4.10;99.90
21459;DHT22;10891;49.350;19.386;2023-04-15T00:07:11;4.10;99.90
21459;DHT22;10891;49.350;19.386;2023-04-15T00:09:40;4.00;99.90
21459;DHT22;10891;49.350;19.386;2023-04-15T00:12:07;4.00;99.90
21459;DHT22;10891;49.350;19.386;2023-04-15T00:14:34;3.90;99.90
21459;DHT22;10891;49.350;19.386;2023-04-15T00:17:01;3.80;99.90
21459;DHT22;10891;49.350;19.386;2023-04-15T00:19:28;3.70;99.90
21459;DHT22;10891;49.350;19.386;2023-04-15T00:21:55;3.70;99.90
21459;DHT22;10891;49.350;19.386;2023-04-15T00:24:22;3.70;99.90
21459;DHT22;10891;49.350;19.386;2023-04-15T00:26:51;3.80;99.90
21459;DHT22;10891;49.350;19.386;2023-04-15T00:29:18;3.80;99.90
21459;DHT22;10891;49.350;19.386;2023-04-15T00:31:45;3.90;99.90
21459;DHT22;10891;49.350;19.386;2023-04-15T00:34:11;3.90;99.90
21459;DHT22;10891;49.350;19.386;2023-04-15T00:36:39;4.00;99.90
21459;DHT22;10891;49.350;19.386;2023-04-15T00:39:06;4.10;99.90
21459;DHT22;10891;49.350;19.386;2023-04-15T00:41:33;4.20;99.90
21459;DHT22;10891;49.350;19.386;2023-04-15T00:44:05;4.40;99.90
21459;DHT22;10891;49.350;19.386;2023-04-15T00:46:34;4.60;99.90
21459;DHT22;10891;49.350;19.386;2023-04-15T00:49:03;4.70;99.90
21459;DHT22;10891;49.350;19.386;2023-04-15T00:51:29;4.80;99.90
21459;DHT22;10891;49.350;19.386;2023-04-15T00:53:59;4.80;99.90
21459;DHT22;10891;49.350;19.386;2023-04-15T00:56:28;4.90;99.90
21459;DHT22;10891;49.350;19.386;2023-04-15T00:58:55;4.90;99.90
21459;DHT22;10891;49.350;19.386;2023-04-15T01:01:24;5.00;99.90
21459;DHT22;10891;49.350;19.386;2023-04-15T01:03:51;5.10;99.90
21459;DHT22;10891;49.350;19.386;2023-04-15T01:06:19;5.20;99.90
21459;DHT22;10891;49.350;19.386;2023-04-15T01:08:46;5.20;99.90
21459;DHT22;10891;49.350;19.386;2023-04-15T01:11:13;5.20;99.90
21459;DHT22;10891;49.350;19.386;2023-04-15T01:13:40;5.10;99.90
21459;DHT22;10891;49.350;19.386;2023-04-15T01:16:07;5.00;99.90
21459;DHT22;10891;49.350;19.386;2023-04-15T01:18:36;5.00;99.90
21459;DHT22;10891;49.350;19.386;2023-04-15T01:21:04;5.00;99.90
21459;DHT22;10891;49.350;19.386;2023-04-15T01:23:34;5.00;99.90
21459;DHT22;10891;49.350;19.386;2023-04-15T01:26:03;5.00;99.90
21459;DHT22;10891;49.350;19.386;2023-04-15T01:28:30;5.00;99.90
21459;DHT22;10891;49.350;19.386;2023-04-15T01:31:07;5.00;99.90
21459;DHT22;10891;49.350;19.386;2023-04-15T01:33:35;5.00;99.90
21459;DHT22;10891;49.350;19.386;2023-04-15T01:36:03;5.00;99.90
21459;DHT22;10891;49.350;19.386;2023-04-15T01:38:30;5.00;99.90
21459;DHT22;10891;49.350;19.386;2023-04-15T01:40:57;5.00;99.90
21459;DHT22;10891;49.350;19.386;2023-04-15T01:43:26;5.10;99.90
21459;DHT22;10891;49.350;19.386;2023-04-15T01:45:53;5.10;99.90
21459;DHT22;10891;49.350;19.386;2023-04-15T01:48:21;5.20;99.90
21459;DHT22;10891;49.350;19.386;2023-04-15T01:50:47;5.30;99.90
21459;DHT22;10891;49.350;19.386;2023-04-15T01:53:15;5.40;99.90
21459;DHT22;10891;49.350;19.386;2023-04-15T01:55:41;5.50;99.90
21459;DHT22;10891;49.350;19.386;2023-04-15T01:58:08;5.50;99.90
21459;DHT22;10891;49.350;19.386;2023-04-15T02:00:37;5.60;99.90
21459;DHT22;10891;49.350;19.386;2023-04-15T02:03:04;5.60;99.90
21459;DHT22;10891;49.350;19.386;2023-04-15T02:05:31;5.70;99.90
21459;DHT22;10891;49.350;19.386;2023-04-15T02:07:58;5.70;99.90
21459;DHT22;10891;49.350;19.386;2023-04-15T02:10:25;5.70;99.90
21459;DHT22;10891;49.350;19.386;2023-04-15T02:12:52;5.60;99.90
21459;DHT22;10891;49.350;19.386;2023-04-15T02:15:19;5.70;99.90
21459;DHT22;10891;49.350;19.386;2023-04-15T02:17:47;5.70;99.90
21459;DHT22;10891;49.350;19.386;2023-04-15T02:20:16;5.70;99.90
21459;DHT22;10891;49.350;19.386;2023-04-15T02:22:43;5.80;99.90
21459;DHT22;10891;49.350;19.386;2023-04-15T02:25:10;5.90;99.90
21459;DHT22;10891;49.350;19.386;2023-04-15T02:27:37;5.80;99.90
21459;DHT22;10891;49.350;19.386;2023-04-15T02:30:05;5.70;99.90
21459;DHT22;10891;49.350;19.386;2023-04-15T02:32:32;5.60;99.90
21459;DHT22;10891;49.350;19.386;2023-04-15T02:35:03;5.50;99.90
21459;DHT22;10891;49.350;19.386;2023-04-15T02:37:30;5.40;99.90
21459;DHT22;10891;49.350;19.386;2023-04-15T02:40:01;5.30;99.90
21459;DHT22;10891;49.350;19.386;2023-04-15T02:42:28;5.20;99.90
21459;DHT22;10891;49.350;19.386;2023-04-15T02:44:56;5.20;99.90
21459;DHT22;10891;49.350;19.386;2023-04-15T02:47:23;5.20;99.90
21459;DHT22;10891;49.350;19.386;2023-04-15T02:49:50;5.30;99.90
21459;DHT22;10891;49.350;19.386;2023-04-15T02:52:18;5.40;99.90
21459;DHT22;10891;49.350;19.386;2023-04-15T02:54:45;5.50;99.90
21459;DHT22;10891;49.350;19.386;2023-04-15T02:57:12;5.60;99.90
21459;DHT22;10891;49.350;19.386;2023-04-15T02:59:39;5.70;99.90
21459;DHT22;10891;49.350;19.386;2023-04-15T03:02:05;5.70;99.90
21459;DHT22;10891;49.350;19.386;2023-04-15T03:04:33;5.70;99.90
21459;DHT22;10891;49.350;19.386;2023-04-15T03:07:00;5.80;99.90
21459;DHT22;10891;49.350;19.386;2023-04-15T03:09:29;5.80;99.90
21459;DHT22;10891;49.350;19.386;2023-04-15T03:11:55;5.70;99.90
21459;DHT22;10891;49.350;19.386;2023-04-15T03:14:22;5.70;99.90
21459;DHT22;10891;49.350;19.386;2023-04-15T03:16:49;5.70;99.90
21459;DHT22;10891;49.350;19.386;2023-04-15T03:19:16;5.80;99.90
21459;DHT22;10891;49.350;19.386;2023-04-15T03:21:43;5.80;99.90
21459;DHT22;10891;49.350;19.386;2023-04-15T03:24:10;5.90;99.90
21459;DHT22;10891;49.350;19.386;2023-04-15T03:26:38;6.00;99.90
21459;DHT22;10891;49.350;19.386;2023-04-15T03:29:05;6.00;99.90
21459;DHT22;10891;49.350;19.386;2023-04-15T03:31:32;6.10;99.90
21459;DHT22;10891;49.350;19.386;2023-04-15T03:33:59;6.10;99.90
21459;DHT22;10891;49.350;19.386;2023-04-15T03:36:27;6.20;99.90
21459;DHT22;10891;49.350;19.386;2023-04-15T03:38:55;6.20;99.90
21459;DHT22;10891;49.350;19.386;2023-04-15T03:41:23;6.20;99.90
21459;DHT22;10891;49.350;19.386;2023-04-15T03:43:51;6.20;99.90
21459;DHT22;10891;49.350;19.386;2023-04-15T03:46:18;6.20;99.90
21459;DHT22;10891;49.350;19.386;2023-04-15T03:48:46;6.30;99.90
21459;DHT22;10891;49.350;19.386;2023-04-15T03:51:13;6.30;99.90
21459;DHT22;10891;49.350;19.386;2023-04-15T03:53:40;6.30;99.90
21459;DHT22;10891;49.350;19.386;2023-04-15T03:56:07;6.30;99.90
21459;DHT22;10891;49.350;19.386;2023-04-15T03:58:34;6.30;99.90
21459;DHT22;10891;49.350;19.386;2023-04-15T04:01:02;6.30;99.90
21459;DHT22;10891;49.350;19.386;2023-04-15T04:03:29;6.20;99.90
21459;DHT22;10891;49.350;19.386;2023-04-15T04:05:56;6.20;99.90
21459;DHT22;10891;49.350;19.386;2023-04-15T04:08:23;6.20;99.90
21459;DHT22;10891;49.350;19.386;2023-04-15T04:10:51;6.30;99.90
21459;DHT22;10891;49.350;19.386;2023-04-15T04:13:18;6.20;99.90
21459;DHT22;10891;49.350;19.386;2023-04-15T04:15:45;6.30;99.90
21459;DHT22;10891;49.350;19.386;2023-04-15T04:18:14;6.30;99.90
21459;DHT22;10891;49.350;19.386;2023-04-15T04:20:41;6.10;99.90
21459;DHT22;10891;49.350;19.386;2023-04-15T04:23:08;6.00;99.90
21459;DHT22;10891;49.350;19.386;2023-04-15T04:25:35;5.90;99.90
21459;DHT22;10891;49.350;19.386;2023-04-15T04:28:02;5.90;99.90
21459;DHT22;10891;49.350;19.386;2023-04-15T04:30:29;6.00;99.90
21459;DHT22;10891;49.350;19.386;2023-04-15T04:32:57;6.00;99.90
21459;DHT22;10891;49.350;19.386;2023-04-15T04:35:25;6.10;99.90
21459;DHT22;10891;49.350;19.386;2023-04-15T04:37:52;6.30;99.90
21459;DHT22;10891;49.350;19.386;2023-04-15T04:40:19;6.30;99.90
21459;DHT22;10891;49.350;19.386;2023-04-15T04:42:46;6.40;99.90
21459;DHT22;10891;49.350;19.386;2023-04-15T04:45:13;6.50;99.90
21459;DHT22;10891;49.350;19.386;2023-04-15T04:47:40;6.60;99.90
21459;DHT22;10891;49.350;19.386;2023-04-15T04:50:08;6.90;99.90
21459;DHT22;10891;49.350;19.386;2023-04-15T04:52:38;7.00;99.90
21459;DHT22;10891;49.350;19.386;2023-04-15T04:55:05;7.20;99.90
21459;DHT22;10891;49.350;19.386;2023-04-15T04:57:33;7.20;99.90
21459;DHT22;10891;49.350;19.386;2023-04-15T05:00:00;7.20;99.90
21459;DHT22;10891;49.350;19.386;2023-04-15T05:02:29;7.40;99.90
21459;DHT22;10891;49.350;19.386;2023-04-15T05:04:57;7.50;99.90
21459;DHT22;10891;49.350;19.386;2023-04-15T05:07:24;7.50;99.90
21459;DHT22;10891;49.350;19.386;2023-04-15T05:09:52;7.50;99.90
21459;DHT22;10891;49.350;19.386;2023-04-15T05:12:24;7.60;99.90
21459;DHT22;10891;49.350;19.386;2023-04-15T05:14:51;7.60;99.90
21459;DHT22;10891;49.350;19.386;2023-04-15T05:17:18;7.60;99.90
21459;DHT22;10891;49.350;19.386;2023-04-15T05:19:45;7.50;99.90
21459;DHT22;10891;49.350;19.386;2023-04-15T05:22:12;7.50;99.90
21459;DHT22;10891;49.350;19.386;2023-04-15T05:24:39;7.70;99.90
21459;DHT22;10891;49.350;19.386;2023-04-15T05:27:07;8.20;99.90
21459;DHT22;10891;49.350;19.386;2023-04-15T05:29:36;8.70;99.90
21459;DHT22;10891;49.350;19.386;2023-04-15T05:32:03;9.20;99.90
21459;DHT22;10891;49.350;19.386;2023-04-15T05:34:30;9.40;99.90
21459;DHT22;10891;49.350;19.386;2023-04-15T05:36:57;9.20;99.90
21459;DHT22;10891;49.350;19.386;2023-04-15T05:39:24;9.40;99.90
21459;DHT22;10891;49.350;19.386;2023-04-15T05:41:51;9.40;99.90
21459;DHT22;10891;49.350;19.386;2023-04-15T05:44:19;9.10;99.90
21459;DHT22;10891;49.350;19.386;2023-04-15T05:46:46;9.00;99.90
21459;DHT22;10891;49.350;19.386;2023-04-15T05:49:13;8.90;99.90
21459;DHT22;10891;49.350;19.386;2023-04-15T05:51:40;8.90;99.90
21459;DHT22;10891;49.350;19.386;2023-04-15T05:54:07;9.20;99.90
21459;DHT22;10891;49.350;19.386;2023-04-15T05:56:34;9.30;99.90
21459;DHT22;10891;49.350;19.386;2023-04-15T05:59:01;9.40;99.90
21459;DHT22;10891;49.350;19.386;2023-04-15T06:01:29;9.40;99.90
21459;DHT22;10891;49.350;19.386;2023-04-15T06:03:56;9.40;99.90
21459;DHT22;10891;49.350;19.386;2023-04-15T06:06:23;9.30;99.90
21459;DHT22;10891;49.350;19.386;2023-04-15T06:08:51;9.50;99.90
21459;DHT22;10891;49.350;19.386;2023-04-15T06:11:20;9.60;99.90
21459;DHT22;10891;49.350;19.386;2023-04-15T06:13:48;9.80;99.90
21459;DHT22;10891;49.350;19.386;2023-04-15T06:16:16;10.20;99.90
21459;DHT22;10891;49.350;19.386;2023-04-15T06:18:44;10.30;99.90
21459;DHT22;10891;49.350;19.386;2023-04-15T06:21:11;10.30;99.90
21459;DHT22;10891;49.350;19.386;2023-04-15T06:23:39;10.00;99.90
21459;DHT22;10891;49.350;19.386;2023-04-15T06:26:06;9.90;99.90
21459;DHT22;10891;49.350;19.386;2023-04-15T06:28:35;10.20;99.90
21459;DHT22;10891;49.350;19.386;2023-04-15T06:31:03;10.60;99.90
21459;DHT22;10891;49.350;19.386;2023-04-15T06:33:31;10.90;99.90
21459;DHT22;10891;49.350;19.386;2023-04-15T06:35:59;11.10;99.90
21459;DHT22;10891;49.350;19.386;2023-04-15T06:38:27;10.90;99.90
21459;DHT22;10891;49.350;19.386;2023-04-15T06:40:54;11.10;99.90
21459;DHT22;10891;49.350;19.386;2023-04-15T06:43:23;11.40;99.90
21459;DHT22;10891;49.350;19.386;2023-04-15T06:45:51;11.40;99.90
21459;DHT22;10891;49.350;19.386;2023-04-15T06:48:19;11.50;99.90
21459;DHT22;10891;49.350;19.386;2023-04-15T06:50:46;11.50;99.90
21459;DHT22;10891;49.350;19.386;2023-04-15T06:53:15;11.50;99.90
21459;DHT22;10891;49.350;19.386;2023-04-15T06:55:42;11.50;99.90
21459;DHT22;10891;49.350;19.386;2023-04-15T06:58:10;11.30;99.90
21459;DHT22;10891;49.350;19.386;2023-04-15T07:00:38;11.30;99.90
21459;DHT22;10891;49.350;19.386;2023-04-15T07:03:06;11.20;99.90
21459;DHT22;10891;49.350;19.386;2023-04-15T07:05:35;11.00;99.90
21459;DHT22;10891;49.350;19.386;2023-04-15T07:08:03;11.00;99.90
21459;DHT22;10891;49.350;19.386;2023-04-15T07:10:35;10.90;99.90
21459;DHT22;10891;49.350;19.386;2023-04-15T07:13:04;11.00;99.90
21459;DHT22;10891;49.350;19.386;2023-04-15T07:15:35;11.10;99.90
21459;DHT22;10891;49.350;19.386;2023-04-15T07:18:06;10.70;99.90
21459;DHT22;10891;49.350;19.386;2023-04-15T07:20:34;10.80;99.90
21459;DHT22;10891;49.350;19.386;2023-04-15T07:23:01;10.70;99.90
21459;DHT22;10891;49.350;19.386;2023-04-15T07:25:28;10.70;99.90
21459;DHT22;10891;49.350;19.386;2023-04-15T07:27:56;11.10;99.90
21459;DHT22;10891;49.350;19.386;2023-04-15T07:30:23;11.20;99.90
21459;DHT22;10891;49.350;19.386;2023-04-15T07:32:50;11.40;99.90
21459;DHT22;10891;49.350;19.386;2023-04-15T07:35:17;11.30;99.90
21459;DHT22;10891;49.350;19.386;2023-04-15T07:37:46;11.30;99.90
21459;DHT22;10891;49.350;19.386;2023-04-15T07:40:15;11.20;99.90
21459;DHT22;10891;49.350;19.386;2023-04-15T07:42:43;11.00;99.90
21459;DHT22;10891;49.350;19.386;2023-04-15T07:45:12;11.20;99.90
21459;DHT22;10891;49.350;19.386;2023-04-15T07:47:39;11.40;99.90
21459;DHT22;10891;49.350;19.386;2023-04-15T07:50:08;11.40;99.90
21459;DHT22;10891;49.350;19.386;2023-04-15T07:52:36;11.00;99.90
21459;DHT22;10891;49.350;19.386;2023-04-15T07:55:05;11.00;99.90
21459;DHT22;10891;49.350;19.386;2023-04-15T07:57:32;11.00;99.90
21459;DHT22;10891;49.350;19.386;2023-04-15T08:00:00;11.10;99.90
21459;DHT22;10891;49.350;19.386;2023-04-15T08:02:30;11.20;99.90
21459;DHT22;10891;49.350;19.386;2023-04-15T08:04:57;11.50;99.90
21459;DHT22;10891;49.350;19.386;2023-04-15T08:07:24;11.70;99.90
21459;DHT22;10891;49.350;19.386;2023-04-15T08:09:52;11.90;99.90
21459;DHT22;10891;49.350;19.386;2023-04-15T08:12:19;12.10;99.90
21459;DHT22;10891;49.350;19.386;2023-04-15T08:14:49;11.90;99.90
21459;DHT22;10891;49.350;19.386;2023-04-15T08:17:18;11.90;99.90
21459;DHT22;10891;49.350;19.386;2023-04-15T08:19:47;11.70;99.90
21459;DHT22;10891;49.350;19.386;2023-04-15T08:22:15;11.40;99.90
21459;DHT22;10891;49.350;19.386;2023-04-15T08:24:42;11.30;99.90
21459;DHT22;10891;49.350;19.386;2023-04-15T08:27:09;11.70;99.90
21459;DHT22;10891;49.350;19.386;2023-04-15T08:29:36;11.70;99.90
21459;DHT22;10891;49.350;19.386;2023-04-15T08:32:03;11.90;99.90
21459;DHT22;10891;49.350;19.386;2023-04-15T08:34:30;11.50;99.90
21459;DHT22;10891;49.350;19.386;2023-04-15T08:36:59;11.30;99.90
21459;DHT22;10891;49.350;19.386;2023-04-15T08:39:26;11.20;99.90
21459;DHT22;10891;49.350;19.386;2023-04-15T08:42:00;11.10;99.90
21459;DHT22;10891;49.350;19.386;2023-04-15T08:44:28;11.10;99.90
21459;DHT22;10891;49.350;19.386;2023-04-15T08:46:56;11.20;99.90
21459;DHT22;10891;49.350;19.386;2023-04-15T08:49:26;11.00;99.90
21459;DHT22;10891;49.350;19.386;2023-04-15T08:51:55;11.20;99.90
21459;DHT22;10891;49.350;19.386;2023-04-15T08:54:25;11.70;99.90
21459;DHT22;10891;49.350;19.386;2023-04-15T08:56:52;12.00;99.90
21459;DHT22;10891;49.350;19.386;2023-04-15T08:59:20;12.50;99.90
21459;DHT22;10891;49.350;19.386;2023-04-15T09:01:48;12.90;99.90
21459;DHT22;10891;49.350;19.386;2023-04-15T09:04:16;13.50;99.90
21459;DHT22;10891;49.350;19.386;2023-04-15T09:06:43;13.10;99.90
21459;DHT22;10891;49.350;19.386;2023-04-15T09:09:11;12.70;99.90
21459;DHT22;10891;49.350;19.386;2023-04-15T09:11:41;12.70;99.90
21459;DHT22;10891;49.350;19.386;2023-04-15T09:14:08;12.90;99.90
21459;DHT22;10891;49.350;19.386;2023-04-15T09:16:56;12.80;99.90
21459;DHT22;10891;49.350;19.386;2023-04-15T09:19:23;13.10;99.90
21459;DHT22;10891;49.350;19.386;2023-04-15T09:21:51;13.50;99.90
21459;DHT22;10891;49.350;19.386;2023-04-15T09:24:19;13.40;99.90
21459;DHT22;10891;49.350;19.386;2023-04-15T09:26:47;13.70;99.90
21459;DHT22;10891;49.350;19.386;2023-04-15T09:29:17;14.30;99.90
21459;DHT22;10891;49.350;19.386;2023-04-15T09:31:44;14.00;99.90
21459;DHT22;10891;49.350;19.386;2023-04-15T09:34:11;14.20;99.90
21459;DHT22;10891;49.350;19.386;2023-04-15T09:36:52;13.70;99.90
21459;DHT22;10891;49.350;19.386;2023-04-15T09:39:19;13.20;99.90
21459;DHT22;10891;49.350;19.386;2023-04-15T09:42:03;12.90;99.90
21459;DHT22;10891;49.350;19.386;2023-04-15T09:44:31;13.00;99.90
21459;DHT22;10891;49.350;19.386;2023-04-15T09:46:58;13.00;99.90
21459;DHT22;10891;49.350;19.386;2023-04-15T09:49:28;13.00;99.90
21459;DHT22;10891;49.350;19.386;2023-04-15T09:51:58;13.00;99.90
21459;DHT22;10891;49.350;19.386;2023-04-15T09:54:35;13.00;99.90
21459;DHT22;10891;49.350;19.386;2023-04-15T09:57:07;12.80;99.90
21459;DHT22;10891;49.350;19.386;2023-04-15T09:59:37;13.10;99.90
21459;DHT22;10891;49.350;19.386;2023-04-15T10:02:04;12.50;99.90
21459;DHT22;10891;49.350;19.386;2023-04-15T10:04:34;12.40;99.90
21459;DHT22;10891;49.350;19.386;2023-04-15T10:07:04;12.30;99.90
21459;DHT22;10891;49.350;19.386;2023-04-15T10:09:31;12.00;99.90
21459;DHT22;10891;49.350;19.386;2023-04-15T10:11:59;12.10;99.90
21459;DHT22;10891;49.350;19.386;2023-04-15T10:14:31;12.10;99.90
21459;DHT22;10891;49.350;19.386;2023-04-15T10:17:00;11.80;99.90
21459;DHT22;10891;49.350;19.386;2023-04-15T10:19:30;11.90;99.90
21459;DHT22;10891;49.350;19.386;2023-04-15T10:21:58;12.40;99.90
21459;DHT22;10891;49.350;19.386;2023-04-15T10:24:27;12.80;99.90
21459;DHT22;10891;49.350;19.386;2023-04-15T10:26:54;13.30;99.90
21459;DHT22;10891;49.350;19.386;2023-04-15T10:29:23;13.40;99.90
21459;DHT22;10891;49.350;19.386;2023-04-15T10:31:53;13.60;99.90
21459;DHT22;10891;49.350;19.386;2023-04-15T10:34:22;13.60;99.90
21459;DHT22;10891;49.350;19.386;2023-04-15T10:36:49;13.40;99.90
21459;DHT22;10891;49.350;19.386;2023-04-15T10:39:38;13.50;99.90
21459;DHT22;10891;49.350;19.386;2023-04-15T10:42:06;13.30;99.90
21459;DHT22;10891;49.350;19.386;2023-04-15T10:44:35;13.10;99.90
21459;DHT22;10891;49.350;19.386;2023-04-15T10:47:09;12.90;99.90
21459;DHT22;10891;49.350;19.386;2023-04-15T10:49:42;12.40;99.90
21459;DHT22;10891;49.350;19.386;2023-04-15T10:52:10;12.10;99.90
21459;DHT22;10891;49.350;19.386;2023-04-15T10:54:38;12.20;99.90
21459;DHT22;10891;49.350;19.386;2023-04-15T10:57:13;12.30;99.90
21459;DHT22;10891;49.350;19.386;2023-04-15T11:00:00;12.30;99.90
21459;DHT22;10891;49.350;19.386;2023-04-15T11:02:40;12.70;99.90
21459;DHT22;10891;49.350;19.386;2023-04-15T11:05:10;12.50;99.90
21459;DHT22;10891;49.350;19.386;2023-04-15T11:07:40;12.60;99.90
21459;DHT22;10891;49.350;19.386;2023-04-15T11:13:27;12.80;99.90
21459;DHT22;10891;49.350;19.386;2023-04-15T11:16:00;13.10;99.90
21459;DHT22;10891;49.350;19.386;2023-04-15T11:18:31;12.90;99.90
21459;DHT22;10891;49.350;19.386;2023-04-15T11:21:03;13.00;99.90
21459;DHT22;10891;49.350;19.386;2023-04-15T11:23:32;13.30;99.90
21459;DHT22;10891;49.350;19.386;2023-04-15T11:26:00;14.10;99.90
21459;DHT22;10891;49.350;19.386;2023-04-15T11:28:30;14.70;99.90
21459;DHT22;10891;49.350;19.386;2023-04-15T11:31:02;15.00;99.90
21459;DHT22;10891;49.350;19.386;2023-04-15T11:33:32;15.60;99.90
21459;DHT22;10891;49.350;19.386;2023-04-15T11:36:00;16.20;99.90
21459;DHT22;10891;49.350;19.386;2023-04-15T11:38:28;16.50;99.90
21459;DHT22;10891;49.350;19.386;2023-04-15T11:40:56;16.30;99.90
21459;DHT22;10891;49.350;19.386;2023-04-15T11:43:23;16.00;99.90
21459;DHT22;10891;49.350;19.386;2023-04-15T11:45:52;16.30;99.90
21459;DHT22;10891;49.350;19.386;2023-04-15T11:48:21;15.30;99.90
21459;DHT22;10891;49.350;19.386;2023-04-15T11:50:54;14.80;99.90
21459;DHT22;10891;49.350;19.386;2023-04-15T11:53:22;14.70;99.90
21459;DHT22;10891;49.350;19.386;2023-04-15T11:55:51;14.80;99.90
21459;DHT22;10891;49.350;19.386;2023-04-15T11:58:19;14.50;99.90
21459;DHT22;10891;49.350;19.386;2023-04-15T12:00:48;14.40;99.90
21459;DHT22;10891;49.350;19.386;2023-04-15T12:03:22;14.30;99.90
21459;DHT22;10891;49.350;19.386;2023-04-15T12:06:11;14.20;99.90
21459;DHT22;10891;49.350;19.386;2023-04-15T12:08:58;14.10;99.90
21459;DHT22;10891;49.350;19.386;2023-04-15T12:11:30;14.10;99.90
21459;DHT22;10891;49.350;19.386;2023-04-15T12:14:01;14.20;99.90
21459;DHT22;10891;49.350;19.386;2023-04-15T12:16:29;14.40;99.90
21459;DHT22;10891;49.350;19.386;2023-04-15T12:18:58;14.40;99.90
21459;DHT22;10891;49.350;19.386;2023-04-15T12:21:27;14.40;99.90
21459;DHT22;10891;49.350;19.386;2023-04-15T12:24:01;14.30;99.90
21459;DHT22;10891;49.350;19.386;2023-04-15T12:26:30;14.20;99.90
21459;DHT22;10891;49.350;19.386;2023-04-15T12:29:00;13.70;99.90
21459;DHT22;10891;49.350;19.386;2023-04-15T12:31:28;12.60;99.90
21459;DHT22;10891;49.350;19.386;2023-04-15T12:33:55;11.80;99.90
21459;DHT22;10891;49.350;19.386;2023-04-15T12:36:22;11.00;99.90
21459;DHT22;10891;49.350;19.386;2023-04-15T12:38:51;10.00;99.90
21459;DHT22;10891;49.350;19.386;2023-04-15T12:41:19;9.30;99.90
21459;DHT22;10891;49.350;19.386;2023-04-15T12:43:47;8.90;99.90
21459;DHT22;10891;49.350;19.386;2023-04-15T12:46:14;8.50;99.90
21459;DHT22;10891;49.350;19.386;2023-04-15T12:48:41;8.20;99.90
21459;DHT22;10891;49.350;19.386;2023-04-15T12:51:08;8.10;99.90
21459;DHT22;10891;49.350;19.386;2023-04-15T12:53:35;8.30;99.90
21459;DHT22;10891;49.350;19.386;2023-04-15T12:56:04;8.40;99.90
21459;DHT22;10891;49.350;19.386;2023-04-15T12:58:32;8.60;99.90
21459;DHT22;10891;49.350;19.386;2023-04-15T13:00:59;8.60;99.90
21459;DHT22;10891;49.350;19.386;2023-04-15T13:03:26;8.80;99.90
21459;DHT22;10891;49.350;19.386;2023-04-15T13:05:53;9.00;99.90
21459;DHT22;10891;49.350;19.386;2023-04-15T13:08:20;9.30;99.90
21459;DHT22;10891;49.350;19.386;2023-04-15T13:10:47;9.60;99.90
21459;DHT22;10891;49.350;19.386;2023-04-15T13:13:16;10.20;99.90
21459;DHT22;10891;49.350;19.386;2023-04-15T13:15:43;11.00;99.90
21459;DHT22;10891;49.350;19.386;2023-04-15T13:18:10;11.50;99.90
21459;DHT22;10891;49.350;19.386;2023-04-15T13:20:37;11.80;99.90
21459;DHT22;10891;49.350;19.386;2023-04-15T13:23:05;12.30;99.90
21459;DHT22;10891;49.350;19.386;2023-04-15T13:25:32;12.50;99.90
21459;DHT22;10891;49.350;19.386;2023-04-15T13:27:59;13.40;99.90
21459;DHT22;10891;49.350;19.386;2023-04-15T13:30:28;14.10;99.90
21459;DHT22;10891;49.350;19.386;2023-04-15T13:32:55;13.80;99.90
21459;DHT22;10891;49.350;19.386;2023-04-15T13:35:22;13.70;99.90
21459;DHT22;10891;49.350;19.386;2023-04-15T13:37:50;14.00;99.90
21459;DHT22;10891;49.350;19.386;2023-04-15T13:40:19;14.20;99.90
21459;DHT22;10891;49.350;19.386;2023-04-15T13:42:47;13.90;99.90
21459;DHT22;10891;49.350;19.386;2023-04-15T13:45:14;13.70;99.90
21459;DHT22;10891;49.350;19.386;2023-04-15T13:47:42;12.80;99.90
21459;DHT22;10891;49.350;19.386;2023-04-15T13:50:10;12.10;99.90
21459;DHT22;10891;49.350;19.386;2023-04-15T13:52:37;11.70;99.90
21459;DHT22;10891;49.350;19.386;2023-04-15T13:55:05;11.60;99.90
21459;DHT22;10891;49.350;19.386;2023-04-15T13:57:33;11.30;99.90
21459;DHT22;10891;49.350;19.386;2023-04-15T14:00:02;11.30;99.90
21459;DHT22;10891;49.350;19.386;2023-04-15T14:02:33;11.30;99.90
21459;DHT22;10891;49.350;19.386;2023-04-15T14:05:02;11.70;99.90
21459;DHT22;10891;49.350;19.386;2023-04-15T14:07:29;11.80;99.90
21459;DHT22;10891;49.350;19.386;2023-04-15T14:09:56;12.10;99.90
21459;DHT22;10891;49.350;19.386;2023-04-15T14:12:23;12.40;99.90
21459;DHT22;10891;49.350;19.386;2023-04-15T14:14:50;12.90;99.90
21459;DHT22;10891;49.350;19.386;2023-04-15T14:17:17;12.80;99.90
21459;DHT22;10891;49.350;19.386;2023-04-15T14:19:45;12.60;99.90
21459;DHT22;10891;49.350;19.386;2023-04-15T14:22:13;13.10;99.90
21459;DHT22;10891;49.350;19.386;2023-04-15T14:24:40;13.00;99.90
21459;DHT22;10891;49.350;19.386;2023-04-15T14:27:07;13.20;99.90
21459;DHT22;10891;49.350;19.386;2023-04-15T14:29:35;13.60;99.90
21459;DHT22;10891;49.350;19.386;2023-04-15T14:32:02;14.50;99.90
21459;DHT22;10891;49.350;19.386;2023-04-15T14:34:30;14.90;99.90
21459;DHT22;10891;49.350;19.386;2023-04-15T14:36:57;14.70;99.90
21459;DHT22;10891;49.350;19.386;2023-04-15T14:39:26;15.10;99.90
21459;DHT22;10891;49.350;19.386;2023-04-15T14:41:53;15.10;99.90
21459;DHT22;10891;49.350;19.386;2023-04-15T14:44:20;15.10;99.90
21459;DHT22;10891;49.350;19.386;2023-04-15T14:46:48;14.90;99.90
21459;DHT22;10891;49.350;19.386;2023-04-15T14:49:16;14.70;99.90
21459;DHT22;10891;49.350;19.386;2023-04-15T14:51:44;14.50;99.90
21459;DHT22;10891;49.350;19.386;2023-04-15T14:54:11;14.10;99.90
21459;DHT22;10891;49.350;19.386;2023-04-15T14:56:39;13.50;99.90
21459;DHT22;10891;49.350;19.386;2023-04-15T14:59:06;13.20;99.90
21459;DHT22;10891;49.350;19.386;2023-04-15T15:01:33;13.40;99.90
21459;DHT22;10891;49.350;19.386;2023-04-15T15:04:00;13.50;99.90
21459;DHT22;10891;49.350;19.386;2023-04-15T15:06:27;13.90;99.90
21459;DHT22;10891;49.350;19.386;2023-04-15T15:08:54;14.40;99.90
21459;DHT22;10891;49.350;19.386;2023-04-15T15:11:22;14.50;99.90
21459;DHT22;10891;49.350;19.386;2023-04-15T15:13:50;14.40;99.90
21459;DHT22;10891;49.350;19.386;2023-04-15T15:16:17;14.30;99.90
21459;DHT22;10891;49.350;19.386;2023-04-15T15:18:44;14.10;99.90
21459;DHT22;10891;49.350;19.386;2023-04-15T15:21:12;13.90;99.90
21459;DHT22;10891;49.350;19.386;2023-04-15T15:23:39;14.00;99.90
21459;DHT22;10891;49.350;19.386;2023-04-15T15:26:06;13.60;99.90
21459;DHT22;10891;49.350;19.386;2023-04-15T15:28:34;13.50;99.90
21459;DHT22;10891;49.350;19.386;2023-04-15T15:31:02;13.80;99.90
21459;DHT22;10891;49.350;19.386;2023-04-15T15:33:30;14.10;99.90